Tiempo atmosférico en la estación meteorológica de Es Mercadal, Illes Balears (77 m.)



Fecha
DESCASC
Temp. máxima en grados centígrados (hora)
DESCASC
Temp. mínima en grados centígrados (hora)
DESCASC
Temp. media en grados centígrados
DESCASC
Racha de viento máxima en m/sg (hora)
DESCASC
Velocidad máxima media en intervalos de 10 minutos(hora)
DESCASC
Precipitaciones diarias en mm
DESCASC
Precipitaciones de 00:00 a 06:00 en mm
DESCASC
Precipitaciones de 06:00 a 12:00 en mm
DESCASC
Precipitaciones de 12:00 a 18:00 en mm
DESCASC
Precipitaciones de 18:00 a 24:00 en mm
DESCASC
18-01-2018 14.7 (14:40) 8.7 (06:40) 11.7 8.89 (13:10) 5.83 (12:30) 0 0 0 0 0
17-01-2018 15.8 (09:50) 11.5 (20:50) 13.7 16.67 (07:10) 9.72 (04:50) 0 0 0 0 0
16-01-2018 16.7 (15:10) 9.2 (00:00) 13 12.5 (06:50) 8.61 (06:50) 0 0 0 0 0
15-01-2018 13.4 (12:00) 7.3 (04:10) 10.3 8.06 (22:10) 5.28 (22:10) 0 0 0 0 0
14-01-2018 13.6 (10:50) 8.4 (00:00) 11 11.11 (13:40) 7.78 (12:40) 0 0 0 0 0
13-01-2018 13.9 (12:20) 6.3 (00:00) 10.1 6.67 (14:20) 5 (14:20) 0 0 0 0 0
12-01-2018 12.9 (13:00) 7.6 (00:00) 10.2 14.17 (12:20) 10 (09:00) 3.4 0 0 3.4 0
11-01-2018 11.8 (04:10) 6.9 (00:00) 9.4 16.39 (04:20) 8.89 (04:20) 23.4 1 17 5.2 0.2
10-01-2018 13.5 (12:50) 10.6 (00:00) 12.1 11.67 (02:00) 7.78 (01:50) 0 0 0 0 0
09-01-2018 14.9 (13:30) 9.1 (00:00) 12 11.94 (12:20) 8.33 (12:10) 0.2 0 0.2 0 0
08-01-2018 11.8 (11:40) 7 (00:00) 9.4 16.39 (17:50) 11.11 (17:50) 41.2 0 0.8 16.6 23.8
07-01-2018 15.5 (00:10) 6.7 (00:00) 11.1 13.61 (13:40) 9.17 (13:50) 3 0 0 3 0
06-01-2018 17.4 (14:40) 12 (00:00) 14.7 13.61 (19:30) 8.06 (12:00) 0 0 0 0 0
05-01-2018 17.6 (14:30) 11.9 (00:00) 14.8 11.67 (15:10) 8.06 (16:20) 0 0 0 0 0
04-01-2018 19.8 (13:20) 13.4 (23:59) 16.6 16.11 (12:30) 10.83 (12:30) 0 0 0 0 0
03-01-2018 19.9 (15:10) 13.3 (00:00) 16.6 15.56 (15:00) 9.72 (15:00) 0.2 0 0 0.2 0
02-01-2018 16.1 (15:20) 8.9 (00:00) 12.5 16.11 (01:20) 9.17 (01:20) 0 0 0 0 0
01-01-2018 15 (01:20) 8.9 (00:00) 11.9 16.67 (21:40) 11.11 (21:40) 0.2 0 0.2 0 0
31-12-2017 15.8 (13:50) 11.3 (00:00) 13.6 13.89 (16:50) 10 (12:40) 0 0 0 0 0
30-12-2017 18.8 (12:40) 12.5 (00:00) 15.6 11.67 (14:50) 7.78 (14:50) 0 0 0 0 0
29-12-2017 13.6 (15:00) 8.1 (00:00) 10.9 10.56 (00:40) 6.11 (00:40) 0 0 0 0 0
28-12-2017 12.9 (14:10) 8.6 (00:00) 10.8 15.83 (07:20) 9.17 (04:10) 2.2 0 0 0.4 1.8
27-12-2017 14.5 (13:30) 10.2 (00:00) 12.3 26.11 (13:00) 14.17 (15:30) 1.6 0 1.4 0.2 0
26-12-2017 16 (12:10) 10.9 (00:00) 13.4 8.61 (12:30) 5.56 (11:50) 0.4 0 0 0.4 0
25-12-2017 15.8 (14:20) 9.6 (00:00) 12.7 9.17 (12:40) 6.11 (12:40) 0 0 0 0 0
24-12-2017 16.8 (14:30) 9 (00:00) 12.9 7.78 (13:30) 4.72 (12:20) 0 0 0 0 0
23-12-2017 13.6 (14:10) 8.5 (00:00) 11.1 16.67 (05:10) 11.11 (05:40) 0 0 0 0 0
22-12-2017 13.6 (14:10) 11.2 (00:00) 12.4 14.17 (16:30) 9.44 (16:30) 0.2 0 0.2 0 0

Gráficas

Temp. máximas Temp. mínimas Temp. medias Precipitaciones Rachas de viento máximas Velocidades máximas media en intervalos de 10 minutos

Datos horarios

Fecha y hora oficial Temperatura (ºC) Velocidad del viento (km/h) Dirección del viento Racha (km/h) Dirección de racha Precipitación (mm) Presión (hPa) Tendencia (hPa) Humedad (%)
2018-01-20 23:00:00 13 16 Sudoeste 28 Sudoeste 0 -- -- 84
2018-01-20 22:00:00 12.7 19 Sudoeste 33 Sudoeste 0 -- -- 82
2018-01-20 21:00:00 12.4 19 Sudoeste 30 Sudoeste 0 -- -- 79
2018-01-20 20:00:00 12.5 20 Sudoeste 28 Sudoeste 0 -- -- 80
2018-01-20 19:00:00 12 14 Sudoeste 20 Sudoeste 0 -- -- 88
2018-01-20 18:00:00 12.3 14 Sudoeste 28 Sudoeste 0 -- -- 87
2018-01-20 17:00:00 13.3 18 Sudoeste 35 Sudoeste 0 -- -- 78
2018-01-20 16:00:00 13.2 21 Sudoeste 35 Sudoeste 0 -- -- 82
2018-01-20 15:00:00 12.6 21 Sudoeste 34 Sudoeste 0 -- -- 83
2018-01-20 14:00:00 13.4 16 Sudoeste 30 Sudoeste 0 -- -- 78
2018-01-20 13:00:00 13.8 17 Sudoeste 25 Sudoeste 0 -- -- 75
2018-01-20 12:00:00 13.2 2 Oeste 6 Norte 0 -- -- 73
2018-01-20 11:00:00 12.8 5 Norte 10 Nordeste 0 -- -- 76
2018-01-20 10:00:00 12.5 4 Nordeste 9 Nordeste 0 -- -- 81
2018-01-20 09:00:00 10.8 5 Nordeste 13 Nordeste 0 -- -- 88
2018-01-20 08:00:00 10.6 6 Nordeste 12 Nordeste 0 -- -- 88
2018-01-20 07:00:00 10.2 3 Nordeste 21 Nordeste 0.6 -- -- 92
2018-01-20 06:00:00 10 4 Nordeste 9 Nordeste 0.6 -- -- 94
2018-01-20 05:00:00 9.6 2 Norte 16 Este 0 -- -- 94
2018-01-20 04:00:00 9.7 7 Este 13 Nordeste 0 -- -- 94
2018-01-20 03:00:00 10 5 Nordeste 18 Nordeste 0 -- -- 95
2018-01-20 02:00:00 10 10 Nordeste 18 Nordeste 0 -- -- 96
2018-01-20 01:00:00 9.8 5 Sudeste 6 Sudeste 0 -- -- 91
2018-01-20 00:00:00 9.2 2 Sur 4 Oeste 0 -- -- 91
2018-01-19 23:00:00 9.4 2 Sur 3 Norte 0 -- -- 88
2018-01-19 22:00:00 10.1 0 Calma 4 Norte 0 -- -- 87
2018-01-19 21:00:00 10.3 3 Norte 4 Norte 0 -- -- 86
2018-01-19 20:00:00 10.7 0 Calma 5 Nordeste 0 -- -- 85
2018-01-19 19:00:00 11.6 5 Norte 13 Oeste 0 -- -- 81
2018-01-19 18:00:00 12 4 Noroeste 22 Oeste 0 -- -- 83
2018-01-19 17:00:00 13.1 15 Noroeste 30 Noroeste 0 -- -- 79
2018-01-19 16:00:00 13.7 9 Oeste 20 Oeste 0 -- -- 80
2018-01-19 15:00:00 14.3 10 Oeste 15 Noroeste 0 -- -- 75
2018-01-19 14:00:00 15.1 9 Oeste 15 Noroeste 0 -- -- 73
2018-01-19 13:00:00 14.1 11 Oeste 19 Noroeste 0 -- -- 77
2018-01-19 12:00:00 13.8 9 Oeste 14 Sudoeste 0 -- -- 81
2018-01-19 11:00:00 11.9 6 Sudoeste 10 Sudoeste 0 -- -- 87
2018-01-19 10:00:00 10.7 6 Sudoeste 10 Sudoeste 0 -- -- 90
2018-01-19 09:00:00 9.9 5 Sudoeste 7 Sudoeste 0 -- -- 93
2018-01-19 08:00:00 9.9 5 Sudoeste 10 Sur 0 -- -- 92
2018-01-19 07:00:00 9.7 6 Sudoeste 8 Sudoeste 0 -- -- 91
2018-01-19 06:00:00 9.8 8 Sudoeste 10 Sudoeste 0 -- -- 90
2018-01-19 05:00:00 10.2 0 Calma 6 Sudoeste 0 -- -- 87
2018-01-19 04:00:00 10.2 4 Sur 6 Sudoeste 0 -- -- 87
2018-01-19 03:00:00 10 0 Calma 4 Sudeste 0 -- -- 87
2018-01-19 02:00:00 9.9 0 Calma 8 Sudoeste 0 -- -- 89
2018-01-19 01:00:00 10.3 6 Sudoeste 11 Sudoeste 0 -- -- 88
2018-01-19 00:00:00 10.5 5 Sudoeste 11 Sudoeste 0 -- -- 89
2018-01-18 23:00:00 11.4 7 Sudoeste 18 Sudoeste 0 -- -- 86
2018-01-18 22:00:00 12.3 12 Sudoeste 20 Sudoeste 0 -- -- 83
2018-01-18 21:00:00 12.2 9 Sudoeste 16 Sur 0 -- -- 84
2018-01-18 20:00:00 11.9 12 Sur 20 Sudoeste 0 -- -- 85
2018-01-18 19:00:00 11.9 10 Sudoeste 15 Sudoeste 0 -- -- 85
2018-01-18 18:00:00 12.1 9 Sudoeste 15 Sudoeste 0 -- -- 84
2018-01-18 17:00:00 13 11 Sudoeste 22 Sudoeste 0 -- -- 79
2018-01-18 16:00:00 14.4 13 Sudoeste 22 Sudoeste 0 -- -- 74
2018-01-18 15:00:00 14.2 15 Sudoeste 26 Sudoeste 0 -- -- 74
2018-01-18 14:00:00 14.1 17 Sudoeste 32 Sudoeste 0 -- -- 74
2018-01-18 13:00:00 13.6 17 Sudoeste 30 Sudoeste 0 -- -- 75
2018-01-18 12:00:00 13.4 19 Sur 27 Sudoeste 0 -- -- 76
2018-01-18 11:00:00 12.8 10 Sur 21 Sur 0 -- -- 81
2018-01-18 10:00:00 11.1 10 Sur 17 Sur 0 -- -- 84
2018-01-18 09:00:00 10 6 Sur 12 Sudoeste 0 -- -- 87
2018-01-18 08:00:00 9.2 0 Calma 8 Sudeste 0 -- -- 90
2018-01-18 07:00:00 8.8 5 Sur 7 Sur 0 -- -- 91
2018-01-18 06:00:00 9 3 Sudoeste 8 Oeste 0 -- -- 90
2018-01-18 05:00:00 9.1 4 Sudoeste 5 Oeste 0 -- -- 90
2018-01-18 04:00:00 9.1 0 Calma 5 Sudoeste 0 -- -- 89
2018-01-18 03:00:00 9.3 0 Calma 8 Nordeste 0 -- -- 87
2018-01-18 02:00:00 10.1 6 Nordeste 14 Nordeste 0 -- -- 83
2018-01-18 01:00:00 10.9 9 Nordeste 18 Nordeste 0 -- -- 80
2018-01-18 00:00:00 11.6 12 Nordeste 21 Nordeste 0 -- -- 78
2018-01-17 23:00:00 11.7 14 Nordeste 24 Nordeste 0 -- -- 75
2018-01-17 22:00:00 11.8 8 Nordeste 18 Nordeste 0 -- -- 77
2018-01-17 21:00:00 11.7 10 Nordeste 22 Nordeste 0 -- -- 79
2018-01-17 20:00:00 11.9 14 Nordeste 24 Nordeste 0 -- -- 77
2018-01-17 19:00:00 11.8 13 Nordeste 32 Nordeste 0 -- -- 77
2018-01-17 18:00:00 11.9 19 Nordeste 26 Nordeste 0 -- -- 76
2018-01-17 17:00:00 12 14 Nordeste 28 Nordeste 0 -- -- 78
2018-01-17 16:00:00 12.2 14 Nordeste 24 Nordeste 0 -- -- 76
2018-01-17 15:00:00 12.6 17 Nordeste 27 Nordeste 0 -- -- 76
2018-01-17 14:00:00 13.6 16 Nordeste 27 Nordeste 0 -- -- 73
2018-01-17 13:00:00 12.4 18 Nordeste 28 Nordeste 0 -- -- 79
2018-01-17 12:00:00 12.6 13 Nordeste 42 Nordeste 0 -- -- 82
2018-01-17 11:00:00 15.7 19 Noroeste 36 Noroeste 0 -- -- 67
2018-01-17 10:00:00 15.7 13 Noroeste 35 Noroeste 0 -- -- 70
2018-01-17 09:00:00 14.9 17 Oeste 41 Oeste 0 -- -- 75
2018-01-17 08:00:00 14.6 25 Oeste 60 Noroeste 0 -- -- 74
2018-01-17 07:00:00 15.2 32 Noroeste 53 Oeste 0 -- -- 70
2018-01-17 06:00:00 15 26 Oeste 51 Oeste 0 -- -- 70
2018-01-17 05:00:00 15.2 30 Oeste 56 Oeste 0 -- -- 69
2018-01-17 04:00:00 15 33 Sudoeste 47 Sudoeste 0 -- -- 71
2018-01-17 03:00:00 14.3 19 Sudoeste 39 Sudoeste 0 -- -- 75
2018-01-17 02:00:00 13.9 13 Sudoeste 31 Sudoeste 0 -- -- 75
2018-01-17 01:00:00 13.1 14 Sudoeste 25 Sudoeste 0 -- -- 80
2018-01-17 00:00:00 12.7 15 Sudoeste 28 Sudoeste 0 -- -- 82
2018-01-16 23:00:00 12.4 16 Sudoeste 22 Sudoeste 0 -- -- 84
2018-01-16 22:00:00 12.6 16 Sudoeste 25 Sudoeste 0 -- -- 81
2018-01-16 21:00:00 12.7 17 Sudoeste 30 Sudoeste 0 -- -- 82
2018-01-16 20:00:00 12.4 15 Sudoeste 22 Sudoeste 0 -- -- 80
2018-01-16 19:00:00 12.4 12 Sudoeste 23 Sudoeste 0 -- -- 82
2018-01-16 18:00:00 13.5 16 Sudoeste 33 Sudoeste 0 -- -- 80
2018-01-16 17:00:00 14.9 23 Sudoeste 35 Sudoeste 0 -- -- 71
2018-01-16 16:00:00 16.1 20 Sudoeste 35 Sudoeste 0 -- -- 65
2018-01-16 15:00:00 16.5 21 Sudoeste 37 Sudoeste 0 -- -- 65
2018-01-16 14:00:00 16.3 24 Sudoeste 38 Sudoeste 0 -- -- 61
2018-01-16 13:00:00 16.2 24 Sudoeste 37 Sudoeste 0 -- -- 55
2018-01-16 12:00:00 15.1 25 Sudoeste 45 Oeste 0 -- -- 63
2018-01-16 11:00:00 14 27 Sudoeste 43 Sudoeste 0 -- -- 73
2018-01-16 10:00:00 13 22 Sudoeste 44 Sudoeste 0 -- -- 74
2018-01-16 09:00:00 11.9 26 Sudoeste 42 Sudoeste 0 -- -- 74
2018-01-16 08:00:00 11.3 21 Sudoeste 40 Sudoeste 0 -- -- 80
2018-01-16 07:00:00 11.4 28 Sudoeste 45 Sudoeste 0 -- -- 81
2018-01-16 06:00:00 11.3 27 Sudoeste 40 Sudoeste 0 -- -- 85
2018-01-16 05:00:00 11.1 26 Sudoeste 39 Sudoeste 0 -- -- 83
2018-01-16 04:00:00 10.6 22 Sudoeste 34 Sudoeste 0 -- -- 80
2018-01-16 03:00:00 9.9 17 Sudoeste 27 Sudoeste 0 -- -- 83
2018-01-16 02:00:00 9.4 15 Sudoeste 23 Sudoeste 0 -- -- 80
2018-01-16 01:00:00 9.2 16 Sudoeste 30 Sudoeste 0 -- -- 81
2018-01-16 00:00:00 9.2 15 Sudoeste 23 Sudoeste 0 -- -- 81
2018-01-15 23:00:00 9.7 15 Sudoeste 29 Sudoeste 0 -- -- 76
2018-01-15 22:00:00 10.4 16 Sudoeste 25 Sudoeste 0 -- -- 79
2018-01-15 21:00:00 10 14 Sudoeste 24 Sur 0 -- -- 80
2018-01-15 20:00:00 8.8 10 Sudoeste 14 Sudoeste 0 -- -- 82
2018-01-15 19:00:00 9.1 7 Sudoeste 11 Sudoeste 0 -- -- 84
2018-01-15 18:00:00 10.5 4 Oeste 15 Oeste 0 -- -- 77
2018-01-15 17:00:00 12.6 10 Sudoeste 20 Oeste 0 -- -- 69
2018-01-15 16:00:00 13.1 6 Oeste 15 Oeste 0 -- -- 69
2018-01-15 15:00:00 12.2 6 Norte 13 Norte 0 -- -- 74
2018-01-15 14:00:00 13.3 7 Norte 13 Norte 0 -- -- 72
2018-01-15 13:00:00 12.1 8 Nordeste 16 Norte -- -- -- 75
2018-01-15 12:00:00 13.4 4 Nordeste 17 Nordeste 0 -- -- 72
2018-01-15 11:00:00 12.7 5 Norte 10 Norte 0 -- -- 71
2018-01-15 10:00:00 10.5 3 Noroeste 3 Norte 0 -- -- 86
2018-01-15 09:00:00 8.9 0 Calma 4 Sudoeste 0 -- -- 89
2018-01-15 08:00:00 7.5 3 Sudoeste 4 Sudoeste 0 -- -- 92
2018-01-15 07:00:00 7.5 3 Sudoeste 4 Sudoeste 0 -- -- 90
2018-01-15 06:00:00 8.1 0 Calma 5 Noroeste 0 -- -- 88
2018-01-15 05:00:00 7.6 3 Oeste 9 Oeste 0 -- -- 86
2018-01-15 04:00:00 7.5 8 Oeste 10 Sudoeste 0 -- -- 85
2018-01-15 03:00:00 7.9 7 Sudoeste 10 Oeste 0 -- -- 83
2018-01-15 02:00:00 7.7 9 Oeste 12 Oeste 0 -- -- 84
2018-01-15 01:00:00 8 6 Sudoeste 10 Oeste 0 -- -- 84
2018-01-15 00:00:00 8.4 5 Oeste 9 Oeste 0 -- -- 83
2018-01-14 23:00:00 9.2 0 Calma 6 Oeste 0 -- -- 79
2018-01-14 22:00:00 9.5 5 Oeste 15 Oeste 0 -- -- 78
2018-01-14 21:00:00 9.8 4 Oeste 13 Oeste 0 -- -- 78
2018-01-14 20:00:00 9.2 2 Sudoeste 9 Oeste 0 -- -- 81
2018-01-14 19:00:00 9.8 0 Calma 8 Oeste 0 -- -- 79
2018-01-14 18:00:00 10.3 7 Oeste 14 Sudoeste 0 -- -- 76
2018-01-14 17:00:00 11 8 Oeste 21 Oeste 0 -- -- 72
2018-01-14 16:00:00 11.7 14 Oeste 31 Oeste 0 -- -- 70
2018-01-14 15:00:00 12.3 18 Oeste 36 Oeste -- -- -- 67
2018-01-14 14:00:00 12.6 23 Oeste 40 Oeste 0 -- -- 69
2018-01-14 13:00:00 12.7 24 Oeste 39 Oeste 0 -- -- 67
2018-01-14 12:00:00 13.2 18 Oeste 35 Oeste 0 -- -- 72
2018-01-14 11:00:00 13.5 22 Oeste 34 Sudoeste 0 -- -- 69
2018-01-14 10:00:00 12.7 15 Sudoeste 25 Sudoeste 0 -- -- 74
2018-01-14 09:00:00 10.5 11 Sur 16 Sudoeste 0 -- -- 85
2018-01-14 08:00:00 9.8 14 Sudoeste 21 Sudoeste 0 -- -- 86
2018-01-14 07:00:00 9.7 12 Sur 22 Sudoeste 0 -- -- 89
2018-01-14 06:00:00 10.8 17 Sudoeste 26 Sudoeste 0 -- -- 83
2018-01-14 05:00:00 9.3 10 Sur 17 Sudeste 0 -- -- 80
2018-01-14 04:00:00 8.9 8 Sur 11 Sudeste 0 -- -- 81
2018-01-14 03:00:00 9 7 Sur 21 Sudeste 0 -- -- 81
2018-01-14 02:00:00 9.7 14 Sudeste 21 Sudeste 0 -- -- 77
2018-01-14 01:00:00 9.6 12 Sudoeste 22 Sur 0 -- -- 77
2018-01-14 00:00:00 9.7 15 Sudoeste 22 Sur 0 -- -- 76
2018-01-13 23:00:00 10.3 15 Sur 23 Sur 0 -- -- 73
2018-01-13 22:00:00 10.3 13 Sur 18 Sur 0 -- -- 75
2018-01-13 21:00:00 10.5 13 Sur 21 Sur 0 -- -- 77
2018-01-13 20:00:00 10 9 Sur 16 Sur 0 -- -- 78
2018-01-13 19:00:00 9.8 12 Sudeste 16 Sudeste 0 -- -- 80
2018-01-13 18:00:00 10.5 9 Sur 14 Sur 0 -- -- 76
2018-01-13 17:00:00 11.1 7 Sur 17 Sur 0 -- -- 74
2018-01-13 16:00:00 11.8 12 Sur 19 Sur 0 -- -- 71
2018-01-13 15:00:00 12.3 14 Sur 24 Sur 0 -- -- 68
2018-01-13 14:00:00 13 17 Sudoeste 23 Sudoeste 0 -- -- 67
2018-01-13 13:00:00 13.5 15 Sudoeste 21 Sudoeste 0 -- -- 68
2018-01-13 12:00:00 13.4 13 Sur 18 Sudoeste 0 -- -- 68
2018-01-13 11:00:00 13.1 5 Sudeste 9 Sudeste 0 -- -- 73
2018-01-13 10:00:00 10.9 3 Sur 6 Sudoeste 0 -- -- 81
2018-01-13 09:00:00 7.6 5 Sudoeste 7 Sudoeste 0 -- -- 87
2018-01-13 08:00:00 6.6 0 Calma 5 Oeste 0 -- -- 89
2018-01-13 07:00:00 7.4 3 Sudeste 4 Sudeste 0 -- -- 85
2018-01-13 06:00:00 7.4 0 Calma 5 Oeste 0 -- -- 87
2018-01-13 05:00:00 7.9 3 Noroeste 5 Noroeste 0 -- -- 84
2018-01-13 04:00:00 8.3 3 Norte 6 Norte 0 -- -- 84
2018-01-13 03:00:00 7.7 2 Oeste 6 Noroeste 0 -- -- 84
2018-01-13 02:00:00 8 5 Norte 9 Noroeste 0 -- -- 84
2018-01-13 01:00:00 7.3 3 Sur 10 Noroeste 0 -- -- 87
2018-01-13 00:00:00 7.6 8 Norte 13 Norte 0 -- -- 84
2018-01-12 23:00:00 8.1 6 Noroeste 11 Noroeste 0 -- -- 82
2018-01-12 22:00:00 8.2 4 Oeste 10 Sudoeste 0 -- -- 88
2018-01-12 21:00:00 8.7 6 Sudoeste 11 Sudoeste 0 -- -- 87
2018-01-12 20:00:00 8.5 9 Norte 15 Norte 0 -- -- 86
2018-01-12 19:00:00 8.2 7 Norte 16 Norte 0 -- -- 88
2018-01-12 18:00:00 8.3 10 Norte 37 Norte 3 -- -- 91
2018-01-12 17:00:00 10.2 20 Noroeste 38 Norte 0.4 -- -- 76
2018-01-12 16:00:00 11.8 17 Noroeste 40 Norte 0 -- -- 66
2018-01-12 15:00:00 12.5 25 Norte 45 Norte 0 -- -- 65
2018-01-12 14:00:00 12.5 28 Norte 49 Norte 0 -- -- 57
2018-01-12 13:00:00 12.9 29 Norte 51 Norte 0 -- -- 60
2018-01-12 12:00:00 12.7 29 Norte 50 Norte 0 -- -- 56
2018-01-12 11:00:00 12.1 31 Norte 49 Norte 0 -- -- 56
2018-01-12 10:00:00 11.4 25 Norte 47 Norte 0 -- -- 64
2018-01-12 09:00:00 10.8 36 Norte 51 Norte 0 -- -- 63
2018-01-12 08:00:00 10.4 32 Norte 50 Norte 0 -- -- 68
2018-01-12 07:00:00 10.4 30 Norte 49 Norte 0 -- -- 66
2018-01-12 06:00:00 10.3 28 Norte 47 Norte 0 -- -- 71
2018-01-12 05:00:00 10.2 24 Norte 38 Norte 0 -- -- 70
2018-01-12 04:00:00 10.3 24 Norte 45 Norte 0 -- -- 72
2018-01-12 03:00:00 10.5 28 Norte 44 Norte 0 -- -- 71
2018-01-12 02:00:00 10.7 30 Norte 48 Norte 0 -- -- 66
2018-01-12 01:00:00 10.5 27 Norte 42 Norte 0 -- -- 71
2018-01-12 00:00:00 10.8 28 Norte 44 Norte 0 -- -- 68
2018-01-11 23:00:00 11 22 Norte 43 Norte 0 -- -- 72
2018-01-11 22:00:00 10.8 28 Norte 46 Norte 0 -- -- 69
2018-01-11 21:00:00 10.3 22 Norte 35 Norte 0 -- -- 79
2018-01-11 20:00:00 9.5 16 Noroeste 33 Norte 0 -- -- 79
2018-01-11 19:00:00 8.8 10 Norte 41 Norte 0.2 -- -- 82
2018-01-11 18:00:00 7.4 10 Oeste 35 Noroeste 0.4 -- -- 88
2018-01-11 17:00:00 8 24 Noroeste 38 Norte 0 -- -- 82
2018-01-11 16:00:00 8.7 13 Nordeste 36 Noroeste 0.2 -- -- 88
2018-01-11 15:00:00 7.2 23 Norte 42 Noroeste 1.6 -- -- 94
2018-01-11 14:00:00 8.1 6 Noroeste 22 Oeste 0.6 -- -- 92
2018-01-11 13:00:00 7.6 0 Calma 24 Norte 2.4 -- -- 94
2018-01-11 12:00:00 8.3 17 Norte 30 Norte 0.4 -- -- 91
2018-01-11 11:00:00 7.1 12 Norte 40 Oeste 9.2 -- -- 95
2018-01-11 10:00:00 8.6 17 Norte 33 Norte 1.4 -- -- 93
2018-01-11 09:00:00 8.7 19 Norte 34 Norte 3.4 -- -- 93
2018-01-11 08:00:00 8.6 22 Norte 42 Norte 2.4 -- -- 95
2018-01-11 07:00:00 9.9 25 Norte 43 Oeste 0.2 -- -- 87
2018-01-11 06:00:00 11.3 23 Noroeste 43 Noroeste 0 -- -- 74
2018-01-11 05:00:00 8.9 18 Sudoeste 59 Oeste 1 -- -- 84
2018-01-11 04:00:00 11.5 25 Sudoeste 38 Oeste 0 -- -- 71
2018-01-11 03:00:00 10.9 18 Sudoeste 25 Sudoeste 0 -- -- 89
2018-01-11 02:00:00 10.5 15 Sudoeste 24 Sudoeste 0 -- -- 84
2018-01-11 01:00:00 11.4 18 Sudoeste 24 Sudoeste 0 -- -- 80
2018-01-11 00:00:00 11.2 19 Sudoeste 25 Sudoeste 0 -- -- 78
2018-01-10 23:00:00 11.3 17 Sudoeste 24 Sudoeste 0 -- -- 79
2018-01-10 22:00:00 10.7 15 Sudoeste 21 Sudoeste 0 -- -- 82
2018-01-10 21:00:00 10.8 13 Oeste 27 Oeste 0 -- -- 80
2018-01-10 20:00:00 10.7 12 Sudoeste 25 Sudoeste 0 -- -- 83
2018-01-10 19:00:00 11 12 Oeste 22 Oeste 0 -- -- 89
2018-01-10 18:00:00 11.5 4 Sudoeste 13 Oeste 0 -- -- 91
2018-01-10 17:00:00 12.5 6 Sudoeste 14 Sudoeste 0 -- -- 83
2018-01-10 16:00:00 12.8 10 Sudoeste 15 Sudoeste 0 -- -- 79
2018-01-10 15:00:00 13.1 13 Sudoeste 21 Sudoeste 0 -- -- 77
2018-01-10 14:00:00 13.3 14 Oeste 26 Sudoeste 0 -- -- 78
2018-01-10 13:00:00 13.5 15 Oeste 23 Oeste 0 -- -- 77
2018-01-10 12:00:00 12.4 12 Oeste 19 Sudoeste 0 -- -- 85
2018-01-10 11:00:00 12.8 9 Oeste 16 Sudoeste 0 -- -- 82
2018-01-10 10:00:00 12.6 11 Sudoeste 22 Sudoeste 0 -- -- 82
2018-01-10 09:00:00 12 17 Sudoeste 24 Sudoeste 0 -- -- 83
2018-01-10 08:00:00 11.5 15 Sudoeste 23 Sudoeste 0 -- -- 81
2018-01-10 07:00:00 10.9 14 Sudoeste 24 Sudoeste 0 -- -- 84
2018-01-10 06:00:00 11.3 14 Sudoeste 35 Sudoeste 0 -- -- 78
2018-01-10 05:00:00 12 19 Sudoeste 31 Sudoeste 0 -- -- 78
2018-01-10 04:00:00 12 22 Sudoeste 41 Sudoeste 0 -- -- 76
2018-01-10 03:00:00 12 24 Sudoeste 39 Sudoeste 0 -- -- 76
2018-01-10 02:00:00 11.9 25 Sudoeste 42 Sudoeste 0 -- -- 76
2018-01-10 01:00:00 11.7 21 Sudoeste 41 Sudoeste 0 -- -- 80
2018-01-10 00:00:00 11.9 24 Sudoeste 38 Sudoeste 0 -- -- 78
2018-01-09 23:00:00 12.1 22 Sudoeste 32 Sudoeste 0 -- -- 81
2018-01-09 22:00:00 11.8 18 Sudoeste 29 Sudoeste 0 -- -- 82
2018-01-09 21:00:00 11.5 14 Sudoeste 31 Sudoeste 0 -- -- 79
2018-01-09 20:00:00 11.5 15 Sudoeste 26 Sudoeste 0 -- -- 74
2018-01-09 19:00:00 11.8 17 Sudoeste 29 Sudoeste 0 -- -- 68
2018-01-09 18:00:00 12.1 14 Sudoeste 28 Sudoeste 0 -- -- 73
2018-01-09 17:00:00 13.7 19 Sudoeste 30 Sudoeste 0 -- -- 69
2018-01-09 16:00:00 14.4 23 Sudoeste 34 Sudoeste 0 -- -- 64
2018-01-09 15:00:00 14.9 22 Sudoeste 41 Sudoeste 0 -- -- 67
2018-01-09 14:00:00 14.7 29 Sudoeste 41 Sudoeste 0 -- -- 68
2018-01-09 13:00:00 14.2 28 Sudoeste 43 Sudoeste 0 -- -- 69
2018-01-09 12:00:00 14.2 25 Sudoeste 39 Sudoeste 0 -- -- 66
2018-01-09 11:00:00 13.7 23 Sudoeste 38 Sudoeste 0 -- -- 69
2018-01-09 10:00:00 13.1 20 Sudoeste 31 Sudoeste 0 -- -- 72
2018-01-09 09:00:00 10.3 15 Sudoeste 23 Sur 0 -- -- 86
2018-01-09 08:00:00 9.3 6 Sudoeste 13 Sudoeste 0.2 -- -- 92
2018-01-09 07:00:00 9.5 11 Sur 15 Sur 0 -- -- 88
2018-01-09 06:00:00 9.8 12 Sudoeste 21 Sudoeste 0 -- -- 84
2018-01-09 05:00:00 10.2 14 Sudoeste 23 Sudoeste 0 -- -- 83
2018-01-09 04:00:00 9.3 11 Sudoeste 15 Sudoeste 0 -- -- 89
2018-01-09 03:00:00 9.2 5 Sudoeste 19 Sudoeste 0 -- -- 86
2018-01-09 02:00:00 9.8 13 Sudoeste 22 Sudoeste 0 -- -- 81
2018-01-09 01:00:00 9.7 15 Sudoeste 25 Sudoeste 0 -- -- 81
2018-01-09 00:00:00 9.4 14 Sudoeste 18 Sudoeste 0 -- -- 88
2018-01-08 23:00:00 9.2 13 Sudoeste 21 Sudoeste 0 -- -- 91
2018-01-08 22:00:00 9.2 15 Sudoeste 34 Sudoeste 2.4 -- -- 93
2018-01-08 21:00:00 9.1 24 Sudoeste 47 Sudoeste 7.4 -- -- 97
2018-01-08 20:00:00 8.8 25 Oeste 46 Oeste 3.6 -- -- 94
2018-01-08 19:00:00 8.9 30 Oeste 55 Oeste 10.4 -- -- 96
2018-01-08 18:00:00 8.6 32 Oeste 59 Oeste 9.2 -- -- 94
2018-01-08 17:00:00 11.2 8 Oeste 14 Norte 0 -- -- 91
2018-01-08 16:00:00 11.6 9 Norte 18 Nordeste 0 -- -- 91
2018-01-08 15:00:00 11.2 14 Nordeste 24 Nordeste 0.2 -- -- 96
2018-01-08 14:00:00 8.6 5 Oeste 25 Sudeste 6.4 -- -- 96
2018-01-08 13:00:00 8.8 13 Noroeste 27 Sudoeste 0.8 -- -- 89
2018-01-08 12:00:00 11.8 18 Norte 27 Norte 0 -- -- 91
2018-01-08 11:00:00 11.2 15 Norte 21 Norte 0.2 -- -- 95
2018-01-08 10:00:00 9.9 5 Norte 13 Norte 0.6 -- -- 96
2018-01-08 09:00:00 9.2 0 Calma 6 Norte 0 -- -- 94
2018-01-08 08:00:00 8.8 3 Norte 4 Norte 0 -- -- 95
2018-01-08 07:00:00 8.5 2 Noroeste 4 Oeste 0 -- -- 95
2018-01-08 06:00:00 8.3 0 Calma 5 Oeste 0 -- -- 96
2018-01-08 05:00:00 8.1 0 Calma 7 Este 0 -- -- 95
2018-01-08 04:00:00 8.2 3 Sur 5 Sudeste 0 -- -- 97
2018-01-08 03:00:00 7.4 4 Sudoeste 9 Sudoeste 0 -- -- 96
2018-01-08 02:00:00 7.5 6 Nordeste 9 Nordeste 0 -- -- 95
2018-01-08 01:00:00 8.5 6 Sur 14 Sur 0 -- -- 95
2018-01-08 00:00:00 7 3 Sudoeste 9 Sudeste 0 -- -- 95
2018-01-07 23:00:00 7.2 6 Sur 9 Oeste 0 -- -- 96
2018-01-07 22:00:00 7.1 4 Sur 8 Sudoeste 0 -- -- 96
2018-01-07 21:00:00 6.9 6 Sur 15 Sudeste 0 -- -- 96
2018-01-07 20:00:00 7.4 6 Sur 9 Sudeste 0 -- -- 96
2018-01-07 19:00:00 7.7 5 Sudeste 17 Sudoeste 0 -- -- 95
2018-01-07 18:00:00 8.2 6 Sur 10 Sur 0 -- -- 94
2018-01-07 17:00:00 9.6 3 Norte 13 Noroeste 0.6 -- -- 90
2018-01-07 16:00:00 9.3 7 Oeste 39 Oeste 0.2 -- -- 90
2018-01-07 15:00:00 9 23 Oeste 42 Sudoeste 1.8 -- -- 93
2018-01-07 14:00:00 9.2 29 Sudoeste 49 Oeste 0.4 -- -- 88
2018-01-07 13:00:00 11 26 Oeste 39 Oeste 0 -- -- 86
2018-01-07 12:00:00 13.1 15 Sudoeste 30 Oeste 0 -- -- 83
2018-01-07 11:00:00 13.4 3 Noroeste 12 Sur 0 -- -- 84
2018-01-07 10:00:00 12.9 9 Sudeste 14 Sur 0 -- -- 83
2018-01-07 09:00:00 12.7 4 Sudeste 13 Sudeste 0 -- -- 84
2018-01-07 08:00:00 12.8 6 Sudeste 12 Sur -- -- -- 82
2018-01-07 07:00:00 13.1 5 Sur 11 Sudoeste 0 -- -- 81
2018-01-07 06:00:00 13.4 9 Sur 20 Sudeste 0 -- -- 79
2018-01-07 05:00:00 13.7 13 Sudoeste 29 Sur 0 -- -- 77
2018-01-07 04:00:00 14.1 20 Sur 31 Sur 0 -- -- 71
2018-01-07 03:00:00 14.3 21 Sudoeste 45 Sudoeste 0 -- -- 72
2018-01-07 02:00:00 14.7 31 Sudoeste 45 Sudoeste 0 -- -- 72
2018-01-07 01:00:00 14.8 24 Sudoeste 41 Sudoeste 0 -- -- 81
2018-01-07 00:00:00 15.4 21 Sudoeste 31 Sudoeste 0 -- -- 75
2018-01-06 23:00:00 16.2 22 Sur 37 Sur 0 -- -- 71
2018-01-06 22:00:00 16.7 22 Sur 35 Sur 0 -- -- 67
2018-01-06 21:00:00 16.7 25 Sur 40 Sur 0 -- -- 68
2018-01-06 20:00:00 17 23 Sur 49 Sur 0 -- -- 62
2018-01-06 19:00:00 15.5 18 Sudeste 35 Sudeste 0 -- -- 73
2018-01-06 18:00:00 15.2 17 Sudeste 34 Sudeste 0 -- -- 77
2018-01-06 17:00:00 15.1 18 Sudeste 36 Sudeste 0 -- -- 83
2018-01-06 16:00:00 15.5 19 Sudeste 36 Sudeste 0 -- -- 83
2018-01-06 15:00:00 16.6 19 Sudeste 36 Sudeste 0 -- -- 77
2018-01-06 14:00:00 16.6 20 Sudeste 39 Sudeste 0 -- -- 76
2018-01-06 13:00:00 16.1 20 Sudeste 41 Sudeste 0 -- -- 82
2018-01-06 12:00:00 15.4 29 Sudeste 44 Sudeste 0 -- -- 82
2018-01-06 11:00:00 15.4 26 Sudeste 40 Sudeste 0 -- -- 83
2018-01-06 10:00:00 14.3 24 Sur 37 Sur 0 -- -- 88
2018-01-06 09:00:00 13.9 21 Sur 33 Sur 0 -- -- 85
2018-01-06 08:00:00 13.6 17 Sur 26 Sur 0 -- -- 87
2018-01-06 07:00:00 13.1 13 Sur 24 Sur 0 -- -- 88
2018-01-06 06:00:00 12.6 9 Sudoeste 17 Sudoeste 0 -- -- 89
2018-01-06 05:00:00 12.6 9 Sur 20 Sudoeste 0 -- -- 90
2018-01-06 04:00:00 12.9 9 Sur 23 Sudoeste 0 -- -- 91
2018-01-06 03:00:00 12.8 9 Sur 18 Sur 0 -- -- 93
2018-01-06 02:00:00 12.2 11 Sur 23 Sudoeste 0 -- -- 95
2018-01-06 01:00:00 12.1 11 Sur 18 Sur 0 -- -- 94
2018-01-06 00:00:00 12.9 12 Sudoeste 28 Sudoeste 0 -- -- 91
2018-01-05 23:00:00 13.1 18 Sudoeste 32 Sudoeste 0 -- -- 91
2018-01-05 22:00:00 13.5 20 Sudoeste 31 Sudoeste 0 -- -- 89
2018-01-05 21:00:00 13.4 19 Sudoeste 30 Sudoeste 0 -- -- 85
2018-01-05 20:00:00 13.5 15 Sudoeste 29 Sudoeste 0 -- -- 85
2018-01-05 19:00:00 13.7 15 Sudoeste 36 Sudoeste 0 -- -- 87
2018-01-05 18:00:00 14 25 Sudoeste 39 Sudoeste 0 -- -- 85
2018-01-05 17:00:00 15.2 28 Sudoeste 41 Sudoeste 0 -- -- 75
2018-01-05 16:00:00 16.2 23 Sudoeste 42 Sudoeste 0 -- -- 75
2018-01-05 15:00:00 17 25 Sudoeste 37 Sudoeste 0 -- -- 65
2018-01-05 14:00:00 16.8 21 Sudoeste 32 Sudoeste 0 -- -- 72
2018-01-05 13:00:00 16.1 22 Sudoeste 32 Sudoeste 0 -- -- 80
2018-01-05 12:00:00 17.1 17 Sudoeste 28 Sudoeste 0 -- -- 70
2018-01-05 11:00:00 16.4 16 Sudoeste 25 Sudoeste 0 -- -- 71
2018-01-05 10:00:00 14.7 14 Sur 18 Sur 0 -- -- 93
2018-01-05 09:00:00 13.3 10 Sudoeste 17 Sudoeste 0 -- -- 94
2018-01-05 08:00:00 12.2 9 Sudoeste 16 Sudoeste 0 -- -- 93
2018-01-05 07:00:00 12.2 16 Sur 22 Sudoeste 0 -- -- 94
2018-01-05 06:00:00 12.1 5 Sudeste 15 Sudoeste 0 -- -- 89
2018-01-05 05:00:00 12.3 6 Sudoeste 22 Sudoeste 0 -- -- 92
2018-01-05 04:00:00 12.1 13 Sudoeste 21 Sudoeste 0 -- -- 94
2018-01-05 03:00:00 12.8 12 Sudoeste 21 Sudoeste 0 -- -- 93
2018-01-05 02:00:00 13 12 Sur 18 Sudoeste 0 -- -- 94
2018-01-05 01:00:00 12.4 8 Sudoeste 17 Sur 0 -- -- 88
2018-01-05 00:00:00 13.4 11 Sudoeste 22 Sudoeste 0 -- -- 79
2018-01-04 23:00:00 13.7 13 Sudoeste 19 Sudoeste 0 -- -- 81
2018-01-04 22:00:00 14.4 17 Sudoeste 29 Sudoeste 0 -- -- 77
2018-01-04 21:00:00 15 12 Sudoeste 22 Sudoeste 0 -- -- 68
2018-01-04 20:00:00 16 7 Sudoeste 20 Oeste 0 -- -- 64
2018-01-04 19:00:00 16.4 13 Sudoeste 27 Oeste 0 -- -- 63
2018-01-04 18:00:00 16.6 15 Oeste 30 Oeste 0 -- -- 65
2018-01-04 17:00:00 17.8 19 Oeste 37 Oeste 0 -- -- 63
2018-01-04 16:00:00 18.1 23 Oeste 41 Oeste 0 -- -- 66
2018-01-04 15:00:00 19.2 21 Oeste 48 Oeste 0 -- -- 63
2018-01-04 14:00:00 19.4 24 Oeste 49 Oeste 0 -- -- 61
2018-01-04 13:00:00 19.6 33 Oeste 58 Oeste 0 -- -- 60
2018-01-04 12:00:00 19.1 32 Oeste 57 Oeste 0 -- -- 63
2018-01-04 11:00:00 19 24 Oeste 40 Oeste 0 -- -- 65
2018-01-04 10:00:00 18.2 18 Sudoeste 52 Oeste 0 -- -- 66
2018-01-04 09:00:00 17.3 27 Oeste 54 Noroeste 0 -- -- 68
2018-01-04 08:00:00 17.3 27 Oeste 47 Noroeste 0 -- -- 68
2018-01-04 07:00:00 17.3 23 Oeste 52 Noroeste 0 -- -- 68
2018-01-04 06:00:00 17.7 32 Oeste 55 Oeste 0 -- -- 65
2018-01-04 05:00:00 18.2 28 Oeste 48 Oeste 0 -- -- 62
2018-01-04 04:00:00 17.7 21 Oeste 38 Oeste 0 -- -- 65
2018-01-04 03:00:00 18.2 23 Oeste 53 Oeste 0 -- -- 64
2018-01-04 02:00:00 17.5 32 Oeste 49 Oeste 0 -- -- 69
2018-01-04 01:00:00 17.6 23 Oeste 46 Oeste 0 -- -- 68
2018-01-04 00:00:00 17.6 25 Oeste 41 Oeste 0 -- -- 68
2018-01-03 23:00:00 17.8 23 Oeste 41 Oeste 0 -- -- 67
2018-01-03 22:00:00 17.8 26 Oeste 46 Oeste 0 -- -- 68
2018-01-03 21:00:00 17.8 27 Oeste 45 Oeste 0 -- -- 67
2018-01-03 20:00:00 17.9 32 Oeste 46 Oeste 0 -- -- 65
2018-01-03 19:00:00 17.9 27 Oeste 45 Oeste 0 -- -- 64
2018-01-03 18:00:00 18.4 31 Oeste 49 Oeste 0 -- -- 61
2018-01-03 17:00:00 18.7 26 Oeste 46 Oeste 0 -- -- 59
2018-01-03 16:00:00 18.8 22 Oeste 49 Oeste 0.2 -- -- 61
2018-01-03 15:00:00 19.8 35 Oeste 56 Oeste 0 -- -- 56
2018-01-03 14:00:00 19.3 32 Oeste 51 Oeste 0 -- -- 59
2018-01-03 13:00:00 19.5 30 Oeste 45 Oeste 0 -- -- 59
2018-01-03 12:00:00 18.2 31 Oeste 49 Oeste 0 -- -- 65
2018-01-03 11:00:00 17.6 23 Oeste 43 Oeste 0 -- -- 68
2018-01-03 10:00:00 17.2 29 Oeste 44 Oeste 0 -- -- 67
2018-01-03 09:00:00 15.6 17 Oeste 34 Oeste 0 -- -- 75
2018-01-03 08:00:00 15 22 Oeste 33 Oeste 0 -- -- 78
2018-01-03 07:00:00 15.2 14 Oeste 34 Oeste 0 -- -- 75
2018-01-03 06:00:00 14.7 11 Oeste 36 Oeste 0 -- -- 77
2018-01-03 05:00:00 14.6 13 Oeste 23 Oeste 0 -- -- 78
2018-01-03 04:00:00 14.6 14 Oeste 30 Oeste 0 -- -- 78
2018-01-03 03:00:00 13.9 10 Sudoeste 28 Oeste 0 -- -- 81
2018-01-03 02:00:00 14.6 12 Oeste 25 Sudoeste 0 -- -- 76
2018-01-03 01:00:00 14.1 14 Sudoeste 26 Sudoeste 0 -- -- 74
2018-01-03 00:00:00 13.3 14 Sudoeste 22 Sudoeste 0 -- -- 82
2018-01-02 23:00:00 13.1 12 Sudoeste 23 Sudoeste 0 -- -- 82
2018-01-02 22:00:00 12.8 12 Sudoeste 17 Sudoeste 0 -- -- 84
2018-01-02 21:00:00 12.5 11 Sudoeste 19 Sudoeste 0 -- -- 87
2018-01-02 20:00:00 13.1 10 Sudoeste 17 Sudoeste 0 -- -- 72
2018-01-02 19:00:00 13.5 12 Sudoeste 21 Oeste 0 -- -- 73
2018-01-02 18:00:00 13.9 15 Sudoeste 25 Sudoeste 0 -- -- 75
2018-01-02 17:00:00 15 13 Oeste 35 Oeste 0 -- -- 76
2018-01-02 16:00:00 15.8 19 Oeste 37 Noroeste 0 -- -- 71
2018-01-02 15:00:00 15.5 18 Noroeste 41 Oeste 0 -- -- 69
2018-01-02 14:00:00 15.5 16 Noroeste 40 Noroeste 0 -- -- 71
2018-01-02 13:00:00 15.2 22 Noroeste 38 Noroeste 0 -- -- 72
2018-01-02 12:00:00 15.6 18 Oeste 36 Oeste 0 -- -- 73
2018-01-02 11:00:00 15.1 16 Noroeste 28 Norte 0 -- -- 76
2018-01-02 10:00:00 14.2 11 Oeste 23 Oeste 0 -- -- 79
2018-01-02 09:00:00 9.6 8 Sur 12 Sudoeste 0 -- -- 89
2018-01-02 08:00:00 9.5 3 Oeste 8 Sudoeste 0 -- -- 87
2018-01-02 07:00:00 10 2 Oeste 12 Oeste 0 -- -- 87
2018-01-02 06:00:00 11.2 0 Calma 13 Norte 0 -- -- 81
2018-01-02 05:00:00 12.6 11 Noroeste 17 Noroeste 0 -- -- 75
2018-01-02 04:00:00 13 10 Noroeste 29 Norte 0 -- -- 76
2018-01-02 03:00:00 13.9 16 Noroeste 50 Noroeste 0 -- -- 73
2018-01-02 02:00:00 14.7 30 Noroeste 58 Noroeste 0 -- -- 64
2018-01-02 01:00:00 14.9 26 Noroeste 48 Noroeste 0 -- -- 69
2018-01-02 00:00:00 14.7 24 Oeste 46 Oeste 0 -- -- 65
2018-01-01 23:00:00 14.1 26 Oeste 58 Oeste 0 -- -- 73
2018-01-01 22:00:00 14.3 37 Oeste 60 Oeste 0 -- -- 68
2018-01-01 21:00:00 12.9 17 Oeste 46 Oeste 0 -- -- 66
2018-01-01 20:00:00 13.8 30 Sudoeste 48 Sudoeste 0 -- -- 55
2018-01-01 19:00:00 12.8 31 Sudoeste 42 Sudoeste 0 -- -- 63
2018-01-01 18:00:00 13.4 22 Sudoeste 38 Sudoeste 0 -- -- 57
2018-01-01 17:00:00 14 22 Sudoeste 44 Sudoeste 0 -- -- 56
2018-01-01 16:00:00 14.5 26 Oeste 51 Oeste 0 -- -- 53
2018-01-01 15:00:00 14.3 33 Oeste 57 Oeste 0 -- -- 52
2018-01-01 14:00:00 14 32 Oeste 58 Oeste 0 -- -- 60
2018-01-01 13:00:00 13.8 34 Oeste 48 Oeste 0 -- -- 63
2018-01-01 12:00:00 13.3 28 Oeste 49 Oeste 0 -- -- 65
2018-01-01 11:00:00 12.8 14 Sudoeste 24 Sudoeste 0 -- -- 76
2018-01-01 10:00:00 10.4 6 Sur 9 Sur 0 -- -- 90
2018-01-01 09:00:00 9.2 3 Sur 12 Este 0 -- -- 89
2018-01-01 08:00:00 9.2 10 Nordeste 28 Nordeste 0.2 -- -- 88
2018-01-01 07:00:00 10.6 15 Nordeste 36 Noroeste 0 -- -- 86
2018-01-01 06:00:00 12.4 23 Oeste 35 Oeste 0 -- -- 62
2018-01-01 05:00:00 12.6 20 Noroeste 45 Oeste 0 -- -- 59
2018-01-01 04:00:00 13.5 31 Oeste 49 Oeste 0 -- -- 59
2018-01-01 03:00:00 14.5 29 Oeste 45 Oeste 0 -- -- 72
2018-01-01 02:00:00 15 24 Noroeste 40 Noroeste 0 -- -- 71
2018-01-01 01:00:00 14.7 20 Noroeste 39 Oeste 0 -- -- 69
2018-01-01 00:00:00 14.7 21 Oeste 36 Oeste 0 -- -- 75
2017-12-31 23:00:00 14.2 18 Sudoeste 30 Oeste 0 -- -- 82
2017-12-31 22:00:00 13.9 17 Sudoeste 25 Sudoeste 0 -- -- 87
2017-12-31 21:00:00 13.6 15 Sudoeste 30 Sudoeste 0 -- -- 90
2017-12-31 20:00:00 13.5 16 Sudoeste 26 Sudoeste 0 -- -- 92
2017-12-31 19:00:00 14 21 Sudoeste 50 Sudoeste 0 -- -- 91
2017-12-31 18:00:00 14.1 32 Sudoeste 48 Sudoeste 0 -- -- 92
2017-12-31 17:00:00 14.6 31 Sudoeste 50 Sudoeste 0 -- -- 93
2017-12-31 16:00:00 15.2 30 Sudoeste 46 Sur 0 -- -- 93
2017-12-31 15:00:00 15.6 29 Sudoeste 50 Sudoeste 0 -- -- 90
2017-12-31 14:00:00 15.8 35 Sudoeste 49 Sudoeste 0 -- -- 88
2017-12-31 13:00:00 15.5 34 Sudoeste 50 Sudoeste 0 -- -- 88
2017-12-31 12:00:00 14.6 36 Sudoeste 48 Sudoeste 0 -- -- 92
2017-12-31 11:00:00 14.1 21 Sudoeste 40 Sudoeste 0 -- -- 99
2017-12-31 10:00:00 13.7 17 Sudoeste 26 Sudoeste 0 -- -- 100
2017-12-31 09:00:00 12 19 Sur 26 Sur 0 -- -- 99
2017-12-31 08:00:00 11.7 14 Sur 19 Sur 0 -- -- 99
2017-12-31 07:00:00 11.4 9 Sur 19 Sur 0 -- -- 99
2017-12-31 06:00:00 11.6 12 Sur 19 Sur 0 -- -- 95
2017-12-31 05:00:00 11.9 10 Sur 16 Sur 0 -- -- 90
2017-12-31 04:00:00 12.3 9 Sur 15 Sudoeste 0 -- -- 95
2017-12-31 03:00:00 12.7 14 Sudoeste 18 Sudoeste 0 -- -- 96
2017-12-31 02:00:00 12.8 10 Sudoeste 17 Sur 0 -- -- 93
2017-12-31 01:00:00 12.7 10 Sudoeste 15 Sudoeste 0 -- -- 95